sensor_id;sensor_type;location;lat;lon;timestamp;temperature;humidity
75091;DHT22;63674;48.048;8.306;2024-01-25T00:02:23;5.80;99.90
75091;DHT22;63674;48.048;8.306;2024-01-25T00:04:52;5.80;99.90
75091;DHT22;63674;48.048;8.306;2024-01-25T00:07:21;5.80;99.90
75091;DHT22;63674;48.048;8.306;2024-01-25T00:09:49;5.80;99.90
75091;DHT22;63674;48.048;8.306;2024-01-25T00:12:18;5.70;99.90
75091;DHT22;63674;48.048;8.306;2024-01-25T00:14:47;5.80;99.90
75091;DHT22;63674;48.048;8.306;2024-01-25T00:17:16;5.90;99.90
75091;DHT22;63674;48.048;8.306;2024-01-25T00:19:45;6.20;99.90
75091;DHT22;63674;48.048;8.306;2024-01-25T00:22:14;6.20;99.90
75091;DHT22;63674;48.048;8.306;2024-01-25T00:24:43;6.30;99.90
75091;DHT22;63674;48.048;8.306;2024-01-25T00:27:12;6.40;99.90
75091;DHT22;63674;48.048;8.306;2024-01-25T00:29:41;6.40;99.90
75091;DHT22;63674;48.048;8.306;2024-01-25T00:32:10;6.40;99.90
75091;DHT22;63674;48.048;8.306;2024-01-25T00:34:41;6.40;99.90
75091;DHT22;63674;48.048;8.306;2024-01-25T00:37:10;6.30;99.90
75091;DHT22;63674;48.048;8.306;2024-01-25T00:39:40;6.30;99.90
75091;DHT22;63674;48.048;8.306;2024-01-25T00:42:12;6.30;99.90
75091;DHT22;63674;48.048;8.306;2024-01-25T00:44:42;6.40;99.90
75091;DHT22;63674;48.048;8.306;2024-01-25T00:47:12;6.30;99.90
75091;DHT22;63674;48.048;8.306;2024-01-25T00:49:43;6.30;99.90
75091;DHT22;63674;48.048;8.306;2024-01-25T00:52:12;6.30;99.90
75091;DHT22;63674;48.048;8.306;2024-01-25T00:54:42;6.30;99.90
75091;DHT22;63674;48.048;8.306;2024-01-25T00:57:12;6.30;99.90
75091;DHT22;63674;48.048;8.306;2024-01-25T00:59:41;6.30;99.90
75091;DHT22;63674;48.048;8.306;2024-01-25T01:02:12;6.30;99.90
75091;DHT22;63674;48.048;8.306;2024-01-25T01:04:43;6.30;99.90
75091;DHT22;63674;48.048;8.306;2024-01-25T01:07:15;6.30;99.90
75091;DHT22;63674;48.048;8.306;2024-01-25T01:09:44;6.30;99.90
75091;DHT22;63674;48.048;8.306;2024-01-25T01:12:13;6.30;99.90
75091;DHT22;63674;48.048;8.306;2024-01-25T01:14:42;6.30;99.90
75091;DHT22;63674;48.048;8.306;2024-01-25T01:17:10;6.30;99.90
75091;DHT22;63674;48.048;8.306;2024-01-25T01:19:39;6.30;99.90
75091;DHT22;63674;48.048;8.306;2024-01-25T01:22:09;6.30;99.90
75091;DHT22;63674;48.048;8.306;2024-01-25T01:24:38;6.30;99.90
75091;DHT22;63674;48.048;8.306;2024-01-25T01:27:06;6.30;99.90
75091;DHT22;63674;48.048;8.306;2024-01-25T01:29:35;6.30;99.90
75091;DHT22;63674;48.048;8.306;2024-01-25T01:32:04;6.20;99.90
75091;DHT22;63674;48.048;8.306;2024-01-25T01:34:33;6.20;99.90
75091;DHT22;63674;48.048;8.306;2024-01-25T01:37:02;6.20;99.90
75091;DHT22;63674;48.048;8.306;2024-01-25T01:39:33;6.20;99.90
75091;DHT22;63674;48.048;8.306;2024-01-25T01:42:02;6.10;99.90
75091;DHT22;63674;48.048;8.306;2024-01-25T01:44:31;6.10;99.90
75091;DHT22;63674;48.048;8.306;2024-01-25T01:46:59;6.10;99.90
75091;DHT22;63674;48.048;8.306;2024-01-25T01:49:28;6.10;99.90
75091;DHT22;63674;48.048;8.306;2024-01-25T01:51:57;6.10;99.90
75091;DHT22;63674;48.048;8.306;2024-01-25T01:54:26;6.10;99.90
75091;DHT22;63674;48.048;8.306;2024-01-25T01:56:56;6.10;99.90
75091;DHT22;63674;48.048;8.306;2024-01-25T01:59:25;6.00;99.90
75091;DHT22;63674;48.048;8.306;2024-01-25T02:01:55;6.00;99.90
75091;DHT22;63674;48.048;8.306;2024-01-25T02:04:24;6.00;99.90
75091;DHT22;63674;48.048;8.306;2024-01-25T02:06:53;6.10;99.90
75091;DHT22;63674;48.048;8.306;2024-01-25T02:09:22;6.10;99.90
75091;DHT22;63674;48.048;8.306;2024-01-25T02:12:00;6.00;99.90
75091;DHT22;63674;48.048;8.306;2024-01-25T02:14:48;6.10;99.90
75091;DHT22;63674;48.048;8.306;2024-01-25T02:17:35;6.10;99.90
75091;DHT22;63674;48.048;8.306;2024-01-25T02:20:22;6.10;99.90
75091;DHT22;63674;48.048;8.306;2024-01-25T02:23:12;6.00;99.90
75091;DHT22;63674;48.048;8.306;2024-01-25T02:25:59;6.10;99.90
75091;DHT22;63674;48.048;8.306;2024-01-25T02:28:47;6.10;99.90
75091;DHT22;63674;48.048;8.306;2024-01-25T02:31:34;6.10;99.90
75091;DHT22;63674;48.048;8.306;2024-01-25T02:34:21;6.10;99.90
75091;DHT22;63674;48.048;8.306;2024-01-25T02:37:09;6.20;99.90
75091;DHT22;63674;48.048;8.306;2024-01-25T02:39:59;6.20;99.90
75091;DHT22;63674;48.048;8.306;2024-01-25T02:42:46;6.20;99.90
75091;DHT22;63674;48.048;8.306;2024-01-25T02:45:33;6.20;99.90
75091;DHT22;63674;48.048;8.306;2024-01-25T02:48:21;6.20;99.90
75091;DHT22;63674;48.048;8.306;2024-01-25T02:51:08;6.10;99.90
75091;DHT22;63674;48.048;8.306;2024-01-25T02:53:55;6.10;99.90
75091;DHT22;63674;48.048;8.306;2024-01-25T02:56:44;6.10;99.90
75091;DHT22;63674;48.048;8.306;2024-01-25T02:59:31;6.20;99.90
75091;DHT22;63674;48.048;8.306;2024-01-25T03:02:18;6.20;99.90
75091;DHT22;63674;48.048;8.306;2024-01-25T03:05:06;6.20;99.90
75091;DHT22;63674;48.048;8.306;2024-01-25T03:07:53;6.20;99.90
75091;DHT22;63674;48.048;8.306;2024-01-25T03:10:41;6.20;99.90
75091;DHT22;63674;48.048;8.306;2024-01-25T03:13:29;6.30;99.90
75091;DHT22;63674;48.048;8.306;2024-01-25T03:16:16;6.30;99.90
75091;DHT22;63674;48.048;8.306;2024-01-25T03:19:04;6.30;99.90
75091;DHT22;63674;48.048;8.306;2024-01-25T03:21:51;6.30;99.90
75091;DHT22;63674;48.048;8.306;2024-01-25T03:24:38;6.30;99.90
75091;DHT22;63674;48.048;8.306;2024-01-25T03:27:26;6.30;99.90
75091;DHT22;63674;48.048;8.306;2024-01-25T03:30:15;6.30;99.90
75091;DHT22;63674;48.048;8.306;2024-01-25T03:32:46;6.30;99.90
75091;DHT22;63674;48.048;8.306;2024-01-25T03:35:14;6.40;99.90
75091;DHT22;63674;48.048;8.306;2024-01-25T03:37:43;6.30;99.90
75091;DHT22;63674;48.048;8.306;2024-01-25T03:40:12;6.40;99.90
75091;DHT22;63674;48.048;8.306;2024-01-25T03:42:41;6.40;99.90
75091;DHT22;63674;48.048;8.306;2024-01-25T03:45:30;6.40;99.90
75091;DHT22;63674;48.048;8.306;2024-01-25T03:47:59;6.40;99.90
75091;DHT22;63674;48.048;8.306;2024-01-25T03:50:28;6.40;99.90
75091;DHT22;63674;48.048;8.306;2024-01-25T03:52:57;6.40;99.90
75091;DHT22;63674;48.048;8.306;2024-01-25T03:55:26;6.40;99.90
75091;DHT22;63674;48.048;8.306;2024-01-25T03:57:55;6.50;99.90
75091;DHT22;63674;48.048;8.306;2024-01-25T04:00:23;6.40;99.90
75091;DHT22;63674;48.048;8.306;2024-01-25T04:02:54;6.40;99.90
75091;DHT22;63674;48.048;8.306;2024-01-25T04:05:22;6.40;99.90
75091;DHT22;63674;48.048;8.306;2024-01-25T04:07:53;6.30;99.90
75091;DHT22;63674;48.048;8.306;2024-01-25T04:10:22;6.30;99.90
75091;DHT22;63674;48.048;8.306;2024-01-25T04:12:50;6.30;99.90
75091;DHT22;63674;48.048;8.306;2024-01-25T04:15:22;6.30;99.90
75091;DHT22;63674;48.048;8.306;2024-01-25T04:17:50;6.30;99.90
75091;DHT22;63674;48.048;8.306;2024-01-25T04:20:21;6.30;99.90
75091;DHT22;63674;48.048;8.306;2024-01-25T04:22:50;6.30;99.90
75091;DHT22;63674;48.048;8.306;2024-01-25T04:25:19;6.20;99.90
75091;DHT22;63674;48.048;8.306;2024-01-25T04:27:47;6.20;99.90
75091;DHT22;63674;48.048;8.306;2024-01-25T04:30:16;6.20;99.90
75091;DHT22;63674;48.048;8.306;2024-01-25T04:32:45;6.20;99.90
75091;DHT22;63674;48.048;8.306;2024-01-25T04:35:14;6.10;99.90
75091;DHT22;63674;48.048;8.306;2024-01-25T04:37:44;6.10;99.90
75091;DHT22;63674;48.048;8.306;2024-01-25T04:40:13;6.10;99.90
75091;DHT22;63674;48.048;8.306;2024-01-25T04:42:42;6.10;99.90
75091;DHT22;63674;48.048;8.306;2024-01-25T04:45:11;6.00;99.90
75091;DHT22;63674;48.048;8.306;2024-01-25T04:47:39;6.00;99.90
75091;DHT22;63674;48.048;8.306;2024-01-25T04:50:09;6.00;99.90
75091;DHT22;63674;48.048;8.306;2024-01-25T04:52:38;6.00;99.90
75091;DHT22;63674;48.048;8.306;2024-01-25T04:55:08;6.00;99.90
75091;DHT22;63674;48.048;8.306;2024-01-25T04:57:37;6.00;99.90
75091;DHT22;63674;48.048;8.306;2024-01-25T05:00:07;6.00;99.90
75091;DHT22;63674;48.048;8.306;2024-01-25T05:02:37;5.90;99.90
75091;DHT22;63674;48.048;8.306;2024-01-25T05:05:05;5.90;99.90
75091;DHT22;63674;48.048;8.306;2024-01-25T05:07:34;5.90;99.90
75091;DHT22;63674;48.048;8.306;2024-01-25T05:10:03;5.90;99.90
75091;DHT22;63674;48.048;8.306;2024-01-25T05:12:34;5.90;99.90
75091;DHT22;63674;48.048;8.306;2024-01-25T05:15:03;5.90;99.90
75091;DHT22;63674;48.048;8.306;2024-01-25T05:17:33;5.90;99.90
75091;DHT22;63674;48.048;8.306;2024-01-25T05:20:02;5.90;99.90
75091;DHT22;63674;48.048;8.306;2024-01-25T05:22:31;5.90;99.90
75091;DHT22;63674;48.048;8.306;2024-01-25T05:25:07;5.80;99.90
75091;DHT22;63674;48.048;8.306;2024-01-25T05:27:38;5.90;99.90
75091;DHT22;63674;48.048;8.306;2024-01-25T05:30:08;5.90;99.90
75091;DHT22;63674;48.048;8.306;2024-01-25T05:32:37;5.90;99.90
75091;DHT22;63674;48.048;8.306;2024-01-25T05:35:07;5.90;99.90
75091;DHT22;63674;48.048;8.306;2024-01-25T05:37:36;5.80;99.90
75091;DHT22;63674;48.048;8.306;2024-01-25T05:40:06;5.80;99.90
75091;DHT22;63674;48.048;8.306;2024-01-25T05:42:38;5.80;99.90
75091;DHT22;63674;48.048;8.306;2024-01-25T05:45:08;5.80;99.90
75091;DHT22;63674;48.048;8.306;2024-01-25T05:47:37;5.80;99.90
75091;DHT22;63674;48.048;8.306;2024-01-25T05:50:06;5.80;99.90
75091;DHT22;63674;48.048;8.306;2024-01-25T05:52:35;5.90;99.90
75091;DHT22;63674;48.048;8.306;2024-01-25T05:55:06;5.80;99.90
75091;DHT22;63674;48.048;8.306;2024-01-25T05:57:36;5.80;99.90
75091;DHT22;63674;48.048;8.306;2024-01-25T06:00:07;5.80;99.90
75091;DHT22;63674;48.048;8.306;2024-01-25T06:02:38;5.80;99.90
75091;DHT22;63674;48.048;8.306;2024-01-25T06:05:07;5.80;99.90
75091;DHT22;63674;48.048;8.306;2024-01-25T06:07:36;5.80;99.90
75091;DHT22;63674;48.048;8.306;2024-01-25T06:10:06;5.80;99.90
75091;DHT22;63674;48.048;8.306;2024-01-25T06:12:35;5.80;99.90
75091;DHT22;63674;48.048;8.306;2024-01-25T06:15:07;5.80;99.90
75091;DHT22;63674;48.048;8.306;2024-01-25T06:17:36;5.90;99.90
75091;DHT22;63674;48.048;8.306;2024-01-25T06:20:06;5.80;99.90
75091;DHT22;63674;48.048;8.306;2024-01-25T06:22:35;5.80;99.90
75091;DHT22;63674;48.048;8.306;2024-01-25T06:25:05;5.80;99.90
75091;DHT22;63674;48.048;8.306;2024-01-25T06:27:35;5.80;99.90
75091;DHT22;63674;48.048;8.306;2024-01-25T06:30:06;6.90;99.90
75091;DHT22;63674;48.048;8.306;2024-01-25T06:32:36;5.70;99.90
75091;DHT22;63674;48.048;8.306;2024-01-25T06:35:06;5.70;99.90
75091;DHT22;63674;48.048;8.306;2024-01-25T06:37:37;5.80;99.90
75091;DHT22;63674;48.048;8.306;2024-01-25T06:40:07;5.80;99.90
75091;DHT22;63674;48.048;8.306;2024-01-25T06:42:36;5.80;99.90
75091;DHT22;63674;48.048;8.306;2024-01-25T06:45:06;5.80;99.90
75091;DHT22;63674;48.048;8.306;2024-01-25T06:47:36;5.80;99.90
75091;DHT22;63674;48.048;8.306;2024-01-25T06:50:06;5.80;99.90
75091;DHT22;63674;48.048;8.306;2024-01-25T06:52:36;5.70;99.90
75091;DHT22;63674;48.048;8.306;2024-01-25T06:55:05;5.70;99.90
75091;DHT22;63674;48.048;8.306;2024-01-25T06:57:34;5.80;99.90
75091;DHT22;63674;48.048;8.306;2024-01-25T07:00:03;5.70;99.90
75091;DHT22;63674;48.048;8.306;2024-01-25T07:02:35;5.70;99.90
75091;DHT22;63674;48.048;8.306;2024-01-25T07:05:04;5.70;99.90
75091;DHT22;63674;48.048;8.306;2024-01-25T07:07:35;5.60;99.90
75091;DHT22;63674;48.048;8.306;2024-01-25T07:10:06;5.60;99.90
75091;DHT22;63674;48.048;8.306;2024-01-25T07:12:35;5.60;99.90
75091;DHT22;63674;48.048;8.306;2024-01-25T07:15:04;5.60;99.90
75091;DHT22;63674;48.048;8.306;2024-01-25T07:17:35;5.60;99.90
75091;DHT22;63674;48.048;8.306;2024-01-25T07:20:05;5.60;99.90
75091;DHT22;63674;48.048;8.306;2024-01-25T07:22:34;5.50;99.90
75091;DHT22;63674;48.048;8.306;2024-01-25T07:25:04;5.50;99.90
75091;DHT22;63674;48.048;8.306;2024-01-25T07:27:33;5.40;99.90
75091;DHT22;63674;48.048;8.306;2024-01-25T07:30:03;5.50;99.90
75091;DHT22;63674;48.048;8.306;2024-01-25T07:32:32;5.50;99.90
75091;DHT22;63674;48.048;8.306;2024-01-25T07:35:05;5.60;99.90
75091;DHT22;63674;48.048;8.306;2024-01-25T07:37:34;5.60;99.90
75091;DHT22;63674;48.048;8.306;2024-01-25T07:40:03;5.60;99.90
75091;DHT22;63674;48.048;8.306;2024-01-25T07:42:33;5.70;99.90
75091;DHT22;63674;48.048;8.306;2024-01-25T07:45:02;5.60;99.90
75091;DHT22;63674;48.048;8.306;2024-01-25T07:47:32;5.70;99.90
75091;DHT22;63674;48.048;8.306;2024-01-25T07:50:00;5.70;99.90
75091;DHT22;63674;48.048;8.306;2024-01-25T07:52:31;5.70;99.90
75091;DHT22;63674;48.048;8.306;2024-01-25T07:55:00;5.70;99.90
75091;DHT22;63674;48.048;8.306;2024-01-25T07:57:32;5.70;99.90
75091;DHT22;63674;48.048;8.306;2024-01-25T08:00:01;5.80;99.90
75091;DHT22;63674;48.048;8.306;2024-01-25T08:02:31;5.80;99.90
75091;DHT22;63674;48.048;8.306;2024-01-25T08:05:01;5.80;99.90
75091;DHT22;63674;48.048;8.306;2024-01-25T08:07:31;5.90;99.90
75091;DHT22;63674;48.048;8.306;2024-01-25T08:10:00;5.90;99.90
75091;DHT22;63674;48.048;8.306;2024-01-25T08:12:29;5.90;99.90
75091;DHT22;63674;48.048;8.306;2024-01-25T08:14:58;5.90;99.90
75091;DHT22;63674;48.048;8.306;2024-01-25T08:17:27;6.00;99.90
75091;DHT22;63674;48.048;8.306;2024-01-25T08:19:56;6.10;99.90
75091;DHT22;63674;48.048;8.306;2024-01-25T08:22:24;6.10;99.90
75091;DHT22;63674;48.048;8.306;2024-01-25T08:24:54;6.10;99.90
75091;DHT22;63674;48.048;8.306;2024-01-25T08:27:24;6.20;99.90
75091;DHT22;63674;48.048;8.306;2024-01-25T08:29:53;6.20;99.90
75091;DHT22;63674;48.048;8.306;2024-01-25T08:32:22;6.20;99.90
75091;DHT22;63674;48.048;8.306;2024-01-25T08:34:50;6.20;99.90
75091;DHT22;63674;48.048;8.306;2024-01-25T08:37:19;6.30;99.90
75091;DHT22;63674;48.048;8.306;2024-01-25T08:39:48;6.30;99.90
75091;DHT22;63674;48.048;8.306;2024-01-25T08:42:19;6.30;99.90
75091;DHT22;63674;48.048;8.306;2024-01-25T08:44:48;6.30;99.90
75091;DHT22;63674;48.048;8.306;2024-01-25T08:47:17;6.30;99.90
75091;DHT22;63674;48.048;8.306;2024-01-25T08:49:46;6.30;99.90
75091;DHT22;63674;48.048;8.306;2024-01-25T08:52:15;6.30;99.90
75091;DHT22;63674;48.048;8.306;2024-01-25T08:54:44;6.40;99.90
75091;DHT22;63674;48.048;8.306;2024-01-25T08:57:12;6.40;99.90
75091;DHT22;63674;48.048;8.306;2024-01-25T08:59:43;6.40;99.90
75091;DHT22;63674;48.048;8.306;2024-01-25T09:02:12;6.40;99.90
75091;DHT22;63674;48.048;8.306;2024-01-25T09:04:41;6.50;99.90
75091;DHT22;63674;48.048;8.306;2024-01-25T09:07:11;6.40;99.90
75091;DHT22;63674;48.048;8.306;2024-01-25T09:09:40;6.40;99.90
75091;DHT22;63674;48.048;8.306;2024-01-25T09:12:08;6.40;99.90
75091;DHT22;63674;48.048;8.306;2024-01-25T09:14:39;6.40;99.90
75091;DHT22;63674;48.048;8.306;2024-01-25T09:17:09;6.40;99.90
75091;DHT22;63674;48.048;8.306;2024-01-25T09:19:37;6.40;99.90
75091;DHT22;63674;48.048;8.306;2024-01-25T09:22:07;6.40;99.90
75091;DHT22;63674;48.048;8.306;2024-01-25T09:24:37;6.50;99.90
75091;DHT22;63674;48.048;8.306;2024-01-25T09:27:07;6.50;99.90
75091;DHT22;63674;48.048;8.306;2024-01-25T09:29:57;6.50;99.90
75091;DHT22;63674;48.048;8.306;2024-01-25T09:32:27;6.50;99.90
75091;DHT22;63674;48.048;8.306;2024-01-25T09:34:56;6.60;99.90
75091;DHT22;63674;48.048;8.306;2024-01-25T09:37:25;6.60;99.90
75091;DHT22;63674;48.048;8.306;2024-01-25T09:39:54;6.60;99.90
75091;DHT22;63674;48.048;8.306;2024-01-25T09:42:27;6.60;99.90
75091;DHT22;63674;48.048;8.306;2024-01-25T09:44:56;6.60;99.90
75091;DHT22;63674;48.048;8.306;2024-01-25T09:47:24;6.70;99.90
75091;DHT22;63674;48.048;8.306;2024-01-25T09:49:55;6.70;99.90
75091;DHT22;63674;48.048;8.306;2024-01-25T09:52:24;6.70;99.90
75091;DHT22;63674;48.048;8.306;2024-01-25T09:54:55;6.80;99.90
75091;DHT22;63674;48.048;8.306;2024-01-25T09:57:28;6.90;99.90
75091;DHT22;63674;48.048;8.306;2024-01-25T09:59:58;6.90;99.90
75091;DHT22;63674;48.048;8.306;2024-01-25T10:02:28;6.90;99.90
75091;DHT22;63674;48.048;8.306;2024-01-25T10:04:57;6.90;99.90
75091;DHT22;63674;48.048;8.306;2024-01-25T10:07:38;6.90;99.90
75091;DHT22;63674;48.048;8.306;2024-01-25T10:10:08;6.90;99.90
75091;DHT22;63674;48.048;8.306;2024-01-25T10:12:38;6.90;99.90
75091;DHT22;63674;48.048;8.306;2024-01-25T10:15:08;7.00;99.90
75091;DHT22;63674;48.048;8.306;2024-01-25T10:17:40;7.10;99.90
75091;DHT22;63674;48.048;8.306;2024-01-25T10:20:14;7.00;99.90
75091;DHT22;63674;48.048;8.306;2024-01-25T10:22:43;7.10;99.90
75091;DHT22;63674;48.048;8.306;2024-01-25T10:25:13;7.10;99.90
75091;DHT22;63674;48.048;8.306;2024-01-25T10:27:42;7.20;99.90
75091;DHT22;63674;48.048;8.306;2024-01-25T10:30:12;7.30;99.90
75091;DHT22;63674;48.048;8.306;2024-01-25T10:32:45;7.30;99.90
75091;DHT22;63674;48.048;8.306;2024-01-25T10:35:15;7.30;99.90
75091;DHT22;63674;48.048;8.306;2024-01-25T10:37:50;7.40;99.90
75091;DHT22;63674;48.048;8.306;2024-01-25T10:40:19;7.40;99.90
75091;DHT22;63674;48.048;8.306;2024-01-25T10:42:49;7.40;99.90
75091;DHT22;63674;48.048;8.306;2024-01-25T10:45:19;7.50;99.90
75091;DHT22;63674;48.048;8.306;2024-01-25T10:47:49;7.40;99.90
75091;DHT22;63674;48.048;8.306;2024-01-25T10:50:18;7.60;99.90
75091;DHT22;63674;48.048;8.306;2024-01-25T10:52:48;7.60;99.90
75091;DHT22;63674;48.048;8.306;2024-01-25T10:55:17;7.70;99.90
75091;DHT22;63674;48.048;8.306;2024-01-25T10:57:46;7.70;99.90
75091;DHT22;63674;48.048;8.306;2024-01-25T11:00:16;7.70;99.90
75091;DHT22;63674;48.048;8.306;2024-01-25T11:02:45;7.60;99.90
75091;DHT22;63674;48.048;8.306;2024-01-25T11:05:18;7.60;99.90
75091;DHT22;63674;48.048;8.306;2024-01-25T11:07:49;7.70;99.90
75091;DHT22;63674;48.048;8.306;2024-01-25T11:10:20;7.70;99.90
75091;DHT22;63674;48.048;8.306;2024-01-25T11:12:50;7.70;99.90
75091;DHT22;63674;48.048;8.306;2024-01-25T11:15:23;7.70;99.90
75091;DHT22;63674;48.048;8.306;2024-01-25T11:18:01;7.80;99.90
75091;DHT22;63674;48.048;8.306;2024-01-25T11:20:34;7.80;99.90
75091;DHT22;63674;48.048;8.306;2024-01-25T11:23:05;7.80;99.90
75091;DHT22;63674;48.048;8.306;2024-01-25T11:25:37;7.70;99.90
75091;DHT22;63674;48.048;8.306;2024-01-25T11:28:06;7.70;99.90
75091;DHT22;63674;48.048;8.306;2024-01-25T11:30:36;7.70;99.90
75091;DHT22;63674;48.048;8.306;2024-01-25T11:33:07;7.70;99.90
75091;DHT22;63674;48.048;8.306;2024-01-25T11:35:37;7.60;99.90
75091;DHT22;63674;48.048;8.306;2024-01-25T11:38:06;7.60;99.90
75091;DHT22;63674;48.048;8.306;2024-01-25T11:40:36;7.60;99.90
75091;DHT22;63674;48.048;8.306;2024-01-25T11:43:05;7.60;99.90
75091;DHT22;63674;48.048;8.306;2024-01-25T11:45:39;7.70;99.90
75091;DHT22;63674;48.048;8.306;2024-01-25T11:48:10;7.70;99.90
75091;DHT22;63674;48.048;8.306;2024-01-25T11:50:41;7.70;99.90
75091;DHT22;63674;48.048;8.306;2024-01-25T11:53:10;7.80;99.90
75091;DHT22;63674;48.048;8.306;2024-01-25T11:55:39;7.80;99.90
75091;DHT22;63674;48.048;8.306;2024-01-25T11:58:07;7.80;99.90
75091;DHT22;63674;48.048;8.306;2024-01-25T12:00:36;7.70;99.90
75091;DHT22;63674;48.048;8.306;2024-01-25T12:03:06;7.70;99.90
75091;DHT22;63674;48.048;8.306;2024-01-25T12:05:34;7.70;99.90
75091;DHT22;63674;48.048;8.306;2024-01-25T12:08:10;7.80;99.90
75091;DHT22;63674;48.048;8.306;2024-01-25T12:10:41;7.80;99.90
75091;DHT22;63674;48.048;8.306;2024-01-25T12:13:10;7.80;99.90
75091;DHT22;63674;48.048;8.306;2024-01-25T12:15:41;7.80;99.90
75091;DHT22;63674;48.048;8.306;2024-01-25T12:18:10;7.80;99.90
75091;DHT22;63674;48.048;8.306;2024-01-25T12:20:39;7.80;99.90
75091;DHT22;63674;48.048;8.306;2024-01-25T12:23:09;7.80;99.90
75091;DHT22;63674;48.048;8.306;2024-01-25T12:25:39;7.80;99.90
75091;DHT22;63674;48.048;8.306;2024-01-25T12:28:09;7.80;99.90
75091;DHT22;63674;48.048;8.306;2024-01-25T12:30:38;7.70;99.90
75091;DHT22;63674;48.048;8.306;2024-01-25T12:33:07;7.80;99.90
75091;DHT22;63674;48.048;8.306;2024-01-25T12:35:36;7.90;99.90
75091;DHT22;63674;48.048;8.306;2024-01-25T12:38:05;7.90;99.90
75091;DHT22;63674;48.048;8.306;2024-01-25T12:40:37;8.00;99.90
75091;DHT22;63674;48.048;8.306;2024-01-25T12:43:07;8.00;99.90
75091;DHT22;63674;48.048;8.306;2024-01-25T12:45:35;8.10;99.90
75091;DHT22;63674;48.048;8.306;2024-01-25T12:48:05;8.10;99.90
75091;DHT22;63674;48.048;8.306;2024-01-25T12:50:35;8.00;99.90
75091;DHT22;63674;48.048;8.306;2024-01-25T12:53:05;8.00;99.90
75091;DHT22;63674;48.048;8.306;2024-01-25T12:55:34;8.00;99.90
75091;DHT22;63674;48.048;8.306;2024-01-25T12:58:05;7.90;99.90
75091;DHT22;63674;48.048;8.306;2024-01-25T13:00:34;8.00;99.90
75091;DHT22;63674;48.048;8.306;2024-01-25T13:03:04;8.00;99.90
75091;DHT22;63674;48.048;8.306;2024-01-25T13:05:33;8.10;99.90
75091;DHT22;63674;48.048;8.306;2024-01-25T13:08:02;8.10;99.90
75091;DHT22;63674;48.048;8.306;2024-01-25T13:10:31;8.10;99.90
75091;DHT22;63674;48.048;8.306;2024-01-25T13:13:01;8.10;99.90
75091;DHT22;63674;48.048;8.306;2024-01-25T13:15:29;8.10;99.90
75091;DHT22;63674;48.048;8.306;2024-01-25T13:17:59;8.10;99.90
75091;DHT22;63674;48.048;8.306;2024-01-25T13:20:28;8.10;99.90
75091;DHT22;63674;48.048;8.306;2024-01-25T13:22:57;8.10;99.90
75091;DHT22;63674;48.048;8.306;2024-01-25T13:25:25;8.10;99.90
75091;DHT22;63674;48.048;8.306;2024-01-25T13:27:54;8.10;99.90
75091;DHT22;63674;48.048;8.306;2024-01-25T13:30:24;8.20;99.90
75091;DHT22;63674;48.048;8.306;2024-01-25T13:32:53;8.30;99.90
75091;DHT22;63674;48.048;8.306;2024-01-25T13:35:22;8.30;99.90
75091;DHT22;63674;48.048;8.306;2024-01-25T13:37:51;8.20;99.90
75091;DHT22;63674;48.048;8.306;2024-01-25T13:40:19;8.20;99.90
75091;DHT22;63674;48.048;8.306;2024-01-25T13:42:48;8.20;99.90
75091;DHT22;63674;48.048;8.306;2024-01-25T13:45:17;8.10;99.90
75091;DHT22;63674;48.048;8.306;2024-01-25T13:47:47;8.10;99.90
75091;DHT22;63674;48.048;8.306;2024-01-25T13:50:16;8.10;99.90
75091;DHT22;63674;48.048;8.306;2024-01-25T13:52:44;8.10;99.90
75091;DHT22;63674;48.048;8.306;2024-01-25T13:55:13;8.10;99.90
75091;DHT22;63674;48.048;8.306;2024-01-25T13:57:41;8.10;99.90
75091;DHT22;63674;48.048;8.306;2024-01-25T14:00:11;8.10;99.90
75091;DHT22;63674;48.048;8.306;2024-01-25T14:02:41;8.10;99.90
75091;DHT22;63674;48.048;8.306;2024-01-25T14:05:13;8.10;99.90
75091;DHT22;63674;48.048;8.306;2024-01-25T14:07:42;8.00;99.90
75091;DHT22;63674;48.048;8.306;2024-01-25T14:10:11;8.00;99.90
75091;DHT22;63674;48.048;8.306;2024-01-25T14:12:41;8.10;99.90
75091;DHT22;63674;48.048;8.306;2024-01-25T14:15:11;8.00;99.90
75091;DHT22;63674;48.048;8.306;2024-01-25T14:17:40;8.00;99.90
75091;DHT22;63674;48.048;8.306;2024-01-25T14:20:09;7.90;99.90
75091;DHT22;63674;48.048;8.306;2024-01-25T14:22:40;7.90;99.90
75091;DHT22;63674;48.048;8.306;2024-01-25T14:25:09;7.90;99.90
75091;DHT22;63674;48.048;8.306;2024-01-25T14:27:39;7.90;99.90
75091;DHT22;63674;48.048;8.306;2024-01-25T14:30:09;7.90;99.90
75091;DHT22;63674;48.048;8.306;2024-01-25T14:32:38;7.90;99.90
75091;DHT22;63674;48.048;8.306;2024-01-25T14:35:08;7.90;99.90
75091;DHT22;63674;48.048;8.306;2024-01-25T14:37:38;7.90;99.90
75091;DHT22;63674;48.048;8.306;2024-01-25T14:40:09;7.90;99.90
75091;DHT22;63674;48.048;8.306;2024-01-25T14:42:59;7.90;99.90
75091;DHT22;63674;48.048;8.306;2024-01-25T14:45:28;7.90;99.90
75091;DHT22;63674;48.048;8.306;2024-01-25T14:47:58;7.90;99.90
75091;DHT22;63674;48.048;8.306;2024-01-25T14:50:27;8.00;99.90
75091;DHT22;63674;48.048;8.306;2024-01-25T14:52:57;8.00;99.90
75091;DHT22;63674;48.048;8.306;2024-01-25T14:55:25;8.00;99.90
75091;DHT22;63674;48.048;8.306;2024-01-25T14:57:55;8.00;99.90
75091;DHT22;63674;48.048;8.306;2024-01-25T15:00:23;8.00;99.90
75091;DHT22;63674;48.048;8.306;2024-01-25T15:02:52;8.00;99.90
75091;DHT22;63674;48.048;8.306;2024-01-25T15:05:23;7.90;99.90
75091;DHT22;63674;48.048;8.306;2024-01-25T15:07:52;7.90;99.90
75091;DHT22;63674;48.048;8.306;2024-01-25T15:10:22;8.00;99.90
75091;DHT22;63674;48.048;8.306;2024-01-25T15:12:50;8.00;99.90
75091;DHT22;63674;48.048;8.306;2024-01-25T15:15:21;7.90;99.90
75091;DHT22;63674;48.048;8.306;2024-01-25T15:17:51;8.00;99.90
75091;DHT22;63674;48.048;8.306;2024-01-25T15:20:21;8.00;99.90
75091;DHT22;63674;48.048;8.306;2024-01-25T15:22:50;7.90;99.90
75091;DHT22;63674;48.048;8.306;2024-01-25T15:25:19;7.90;99.90
75091;DHT22;63674;48.048;8.306;2024-01-25T15:27:49;7.80;99.90
75091;DHT22;63674;48.048;8.306;2024-01-25T15:30:18;7.80;99.90
75091;DHT22;63674;48.048;8.306;2024-01-25T15:32:47;7.80;99.90
75091;DHT22;63674;48.048;8.306;2024-01-25T15:35:16;7.80;99.90
75091;DHT22;63674;48.048;8.306;2024-01-25T15:37:45;7.80;99.90
75091;DHT22;63674;48.048;8.306;2024-01-25T15:40:14;7.70;99.90
75091;DHT22;63674;48.048;8.306;2024-01-25T15:42:46;7.70;99.90
75091;DHT22;63674;48.048;8.306;2024-01-25T15:45:20;7.70;99.90
75091;DHT22;63674;48.048;8.306;2024-01-25T15:47:49;7.80;99.90
75091;DHT22;63674;48.048;8.306;2024-01-25T15:50:18;7.70;99.90
75091;DHT22;63674;48.048;8.306;2024-01-25T15:52:47;7.80;99.90
75091;DHT22;63674;48.048;8.306;2024-01-25T15:55:16;7.70;99.90
75091;DHT22;63674;48.048;8.306;2024-01-25T15:57:45;7.70;99.90
75091;DHT22;63674;48.048;8.306;2024-01-25T16:00:14;7.70;99.90
75091;DHT22;63674;48.048;8.306;2024-01-25T16:02:45;7.70;99.90
75091;DHT22;63674;48.048;8.306;2024-01-25T16:05:14;7.60;99.90
75091;DHT22;63674;48.048;8.306;2024-01-25T16:07:43;7.60;99.90
75091;DHT22;63674;48.048;8.306;2024-01-25T16:10:16;7.70;99.90